sensor_id;sensor_type;location;lat;lon;timestamp;temperature;humidity
84141;DHT22;74257;52.540;13.416;2024-02-23T00:01:51;19.30;44.30
84141;DHT22;74257;52.540;13.416;2024-02-23T00:04:17;19.30;44.30
84141;DHT22;74257;52.540;13.416;2024-02-23T00:06:45;19.30;44.20
84141;DHT22;74257;52.540;13.416;2024-02-23T00:09:10;19.30;44.20
84141;DHT22;74257;52.540;13.416;2024-02-23T00:11:39;19.30;44.20
84141;DHT22;74257;52.540;13.416;2024-02-23T00:14:07;19.30;44.30
84141;DHT22;74257;52.540;13.416;2024-02-23T00:16:40;19.30;44.30
84141;DHT22;74257;52.540;13.416;2024-02-23T00:19:09;19.30;44.30
84141;DHT22;74257;52.540;13.416;2024-02-23T00:21:38;19.30;44.20
84141;DHT22;74257;52.540;13.416;2024-02-23T00:24:05;19.30;44.30
84141;DHT22;74257;52.540;13.416;2024-02-23T00:26:31;19.30;44.30
84141;DHT22;74257;52.540;13.416;2024-02-23T00:28:57;19.30;44.30
84141;DHT22;74257;52.540;13.416;2024-02-23T00:31:23;19.30;44.30
84141;DHT22;74257;52.540;13.416;2024-02-23T00:33:49;19.30;44.30
84141;DHT22;74257;52.540;13.416;2024-02-23T00:36:15;19.30;44.20
84141;DHT22;74257;52.540;13.416;2024-02-23T00:38:40;19.20;44.30
84141;DHT22;74257;52.540;13.416;2024-02-23T00:41:06;19.30;44.30
84141;DHT22;74257;52.540;13.416;2024-02-23T00:43:39;19.20;44.30
84141;DHT22;74257;52.540;13.416;2024-02-23T00:46:05;19.20;44.30
84141;DHT22;74257;52.540;13.416;2024-02-23T00:48:31;19.20;44.30
84141;DHT22;74257;52.540;13.416;2024-02-23T00:50:56;19.20;44.30
84141;DHT22;74257;52.540;13.416;2024-02-23T00:53:22;19.20;44.30
84141;DHT22;74257;52.540;13.416;2024-02-23T00:55:48;19.20;44.30
84141;DHT22;74257;52.540;13.416;2024-02-23T00:58:14;19.30;44.30
84141;DHT22;74257;52.540;13.416;2024-02-23T01:00:41;19.20;44.30
84141;DHT22;74257;52.540;13.416;2024-02-23T01:03:07;19.20;44.30
84141;DHT22;74257;52.540;13.416;2024-02-23T01:05:33;19.20;44.30
84141;DHT22;74257;52.540;13.416;2024-02-23T01:07:59;19.20;44.30
84141;DHT22;74257;52.540;13.416;2024-02-23T01:10:24;19.20;44.30
84141;DHT22;74257;52.540;13.416;2024-02-23T01:12:50;19.20;44.30
84141;DHT22;74257;52.540;13.416;2024-02-23T01:15:16;19.30;44.30
84141;DHT22;74257;52.540;13.416;2024-02-23T01:17:42;19.20;44.30
84141;DHT22;74257;52.540;13.416;2024-02-23T01:20:08;19.20;44.30
84141;DHT22;74257;52.540;13.416;2024-02-23T01:22:35;19.20;44.30
84141;DHT22;74257;52.540;13.416;2024-02-23T01:25:00;19.20;44.30
84141;DHT22;74257;52.540;13.416;2024-02-23T01:27:26;19.20;44.30
84141;DHT22;74257;52.540;13.416;2024-02-23T01:29:52;19.20;44.30
84141;DHT22;74257;52.540;13.416;2024-02-23T01:32:17;19.20;44.30
84141;DHT22;74257;52.540;13.416;2024-02-23T01:34:43;19.20;44.30
84141;DHT22;74257;52.540;13.416;2024-02-23T01:37:09;19.20;44.30
84141;DHT22;74257;52.540;13.416;2024-02-23T01:39:35;19.20;44.30
84141;DHT22;74257;52.540;13.416;2024-02-23T01:42:01;19.20;44.40
84141;DHT22;74257;52.540;13.416;2024-02-23T01:44:26;19.20;44.30
84141;DHT22;74257;52.540;13.416;2024-02-23T01:46:52;19.20;44.40
84141;DHT22;74257;52.540;13.416;2024-02-23T01:49:18;19.20;44.30
84141;DHT22;74257;52.540;13.416;2024-02-23T01:51:45;19.20;44.40
84141;DHT22;74257;52.540;13.416;2024-02-23T01:54:11;19.20;44.30
84141;DHT22;74257;52.540;13.416;2024-02-23T01:56:37;19.20;44.40
84141;DHT22;74257;52.540;13.416;2024-02-23T01:59:06;19.20;44.40
84141;DHT22;74257;52.540;13.416;2024-02-23T02:01:32;19.20;44.40
84141;DHT22;74257;52.540;13.416;2024-02-23T02:04:00;19.20;44.30
84141;DHT22;74257;52.540;13.416;2024-02-23T02:06:26;19.20;44.40
84141;DHT22;74257;52.540;13.416;2024-02-23T02:08:52;19.20;44.40
84141;DHT22;74257;52.540;13.416;2024-02-23T02:11:19;19.20;44.40
84141;DHT22;74257;52.540;13.416;2024-02-23T02:13:44;19.20;44.40
84141;DHT22;74257;52.540;13.416;2024-02-23T02:16:11;19.20;44.40
84141;DHT22;74257;52.540;13.416;2024-02-23T02:18:37;19.20;44.40
84141;DHT22;74257;52.540;13.416;2024-02-23T02:21:03;19.20;44.40
84141;DHT22;74257;52.540;13.416;2024-02-23T02:23:28;19.20;44.40
84141;DHT22;74257;52.540;13.416;2024-02-23T02:25:58;19.20;44.40
84141;DHT22;74257;52.540;13.416;2024-02-23T02:28:24;19.20;44.40
84141;DHT22;74257;52.540;13.416;2024-02-23T02:30:51;19.20;44.40
84141;DHT22;74257;52.540;13.416;2024-02-23T02:33:18;19.20;44.40
84141;DHT22;74257;52.540;13.416;2024-02-23T02:35:44;19.20;44.40
84141;DHT22;74257;52.540;13.416;2024-02-23T02:38:13;19.20;44.40
84141;DHT22;74257;52.540;13.416;2024-02-23T02:40:39;19.20;44.30
84141;DHT22;74257;52.540;13.416;2024-02-23T02:43:04;19.20;44.30
84141;DHT22;74257;52.540;13.416;2024-02-23T02:45:31;19.20;44.40
84141;DHT22;74257;52.540;13.416;2024-02-23T02:47:57;19.20;44.30
84141;DHT22;74257;52.540;13.416;2024-02-23T02:50:22;19.20;44.40
84141;DHT22;74257;52.540;13.416;2024-02-23T02:52:48;19.20;44.40
84141;DHT22;74257;52.540;13.416;2024-02-23T02:55:14;19.20;44.40
84141;DHT22;74257;52.540;13.416;2024-02-23T02:57:40;19.20;44.40
84141;DHT22;74257;52.540;13.416;2024-02-23T03:00:10;19.20;44.30
84141;DHT22;74257;52.540;13.416;2024-02-23T03:02:36;19.20;44.30
84141;DHT22;74257;52.540;13.416;2024-02-23T03:05:02;19.20;44.30
84141;DHT22;74257;52.540;13.416;2024-02-23T03:07:27;19.20;44.30
84141;DHT22;74257;52.540;13.416;2024-02-23T03:09:53;19.20;44.30
84141;DHT22;74257;52.540;13.416;2024-02-23T03:12:19;19.20;44.30
84141;DHT22;74257;52.540;13.416;2024-02-23T03:14:45;19.20;44.30
84141;DHT22;74257;52.540;13.416;2024-02-23T03:17:11;19.20;44.20
84141;DHT22;74257;52.540;13.416;2024-02-23T03:19:37;19.20;44.30
84141;DHT22;74257;52.540;13.416;2024-02-23T03:22:03;19.20;44.20
84141;DHT22;74257;52.540;13.416;2024-02-23T03:24:30;19.20;44.20
84141;DHT22;74257;52.540;13.416;2024-02-23T03:26:55;19.20;44.20
84141;DHT22;74257;52.540;13.416;2024-02-23T03:29:22;19.20;44.20
84141;DHT22;74257;52.540;13.416;2024-02-23T03:31:50;19.20;44.20
84141;DHT22;74257;52.540;13.416;2024-02-23T03:34:16;19.20;44.20
84141;DHT22;74257;52.540;13.416;2024-02-23T03:36:43;19.20;44.20
84141;DHT22;74257;52.540;13.416;2024-02-23T03:39:08;19.20;44.20
84141;DHT22;74257;52.540;13.416;2024-02-23T03:41:34;19.20;44.20
84141;DHT22;74257;52.540;13.416;2024-02-23T03:44:00;19.20;44.10
84141;DHT22;74257;52.540;13.416;2024-02-23T03:46:26;19.20;44.20
84141;DHT22;74257;52.540;13.416;2024-02-23T03:48:52;19.20;44.10
84141;DHT22;74257;52.540;13.416;2024-02-23T03:51:18;19.20;44.10
84141;DHT22;74257;52.540;13.416;2024-02-23T03:53:44;19.20;44.10
84141;DHT22;74257;52.540;13.416;2024-02-23T03:56:09;19.20;44.10
84141;DHT22;74257;52.540;13.416;2024-02-23T03:58:35;19.20;44.10
84141;DHT22;74257;52.540;13.416;2024-02-23T04:01:01;19.20;44.00
84141;DHT22;74257;52.540;13.416;2024-02-23T04:03:27;19.20;44.10
84141;DHT22;74257;52.540;13.416;2024-02-23T04:05:52;19.20;44.00
84141;DHT22;74257;52.540;13.416;2024-02-23T04:08:18;19.20;44.00
84141;DHT22;74257;52.540;13.416;2024-02-23T04:10:44;19.20;44.00
84141;DHT22;74257;52.540;13.416;2024-02-23T04:13:10;19.20;44.00
84141;DHT22;74257;52.540;13.416;2024-02-23T04:15:39;19.20;44.00
84141;DHT22;74257;52.540;13.416;2024-02-23T04:18:06;19.10;44.00
84141;DHT22;74257;52.540;13.416;2024-02-23T04:20:31;19.10;44.00
84141;DHT22;74257;52.540;13.416;2024-02-23T04:22:58;19.20;44.00
84141;DHT22;74257;52.540;13.416;2024-02-23T04:25:24;19.10;44.00
84141;DHT22;74257;52.540;13.416;2024-02-23T04:27:50;19.10;44.00
84141;DHT22;74257;52.540;13.416;2024-02-23T04:30:16;19.10;43.90
84141;DHT22;74257;52.540;13.416;2024-02-23T04:32:41;19.10;44.00
84141;DHT22;74257;52.540;13.416;2024-02-23T04:35:08;19.10;43.90
84141;DHT22;74257;52.540;13.416;2024-02-23T04:37:34;19.10;44.00
84141;DHT22;74257;52.540;13.416;2024-02-23T04:40:00;19.10;43.90
84141;DHT22;74257;52.540;13.416;2024-02-23T04:42:25;19.10;43.90
84141;DHT22;74257;52.540;13.416;2024-02-23T04:44:51;19.10;43.90
84141;DHT22;74257;52.540;13.416;2024-02-23T04:47:19;19.10;43.90
84141;DHT22;74257;52.540;13.416;2024-02-23T04:49:45;19.10;43.80
84141;DHT22;74257;52.540;13.416;2024-02-23T04:52:11;19.10;43.90
84141;DHT22;74257;52.540;13.416;2024-02-23T04:54:37;19.10;43.80
84141;DHT22;74257;52.540;13.416;2024-02-23T04:57:03;19.10;43.80
84141;DHT22;74257;52.540;13.416;2024-02-23T04:59:28;19.10;43.80
84141;DHT22;74257;52.540;13.416;2024-02-23T05:01:55;19.10;43.80
84141;DHT22;74257;52.540;13.416;2024-02-23T05:04:21;19.10;43.80
84141;DHT22;74257;52.540;13.416;2024-02-23T05:06:47;19.10;43.70
84141;DHT22;74257;52.540;13.416;2024-02-23T05:09:13;19.10;43.80
84141;DHT22;74257;52.540;13.416;2024-02-23T05:11:39;19.10;43.70
84141;DHT22;74257;52.540;13.416;2024-02-23T05:14:05;19.10;43.70
84141;DHT22;74257;52.540;13.416;2024-02-23T05:16:31;19.10;43.70
84141;DHT22;74257;52.540;13.416;2024-02-23T05:18:57;19.10;43.70
84141;DHT22;74257;52.540;13.416;2024-02-23T05:21:23;19.10;43.70
84141;DHT22;74257;52.540;13.416;2024-02-23T05:23:49;19.10;43.70
84141;DHT22;74257;52.540;13.416;2024-02-23T05:26:15;19.10;43.70
84141;DHT22;74257;52.540;13.416;2024-02-23T05:28:41;19.10;43.70
84141;DHT22;74257;52.540;13.416;2024-02-23T05:31:07;19.10;43.70
84141;DHT22;74257;52.540;13.416;2024-02-23T05:33:34;19.10;43.70
84141;DHT22;74257;52.540;13.416;2024-02-23T05:36:00;19.10;43.70
84141;DHT22;74257;52.540;13.416;2024-02-23T05:38:26;19.10;43.70
84141;DHT22;74257;52.540;13.416;2024-02-23T05:40:51;19.10;43.70
84141;DHT22;74257;52.540;13.416;2024-02-23T05:43:17;19.10;43.70
84141;DHT22;74257;52.540;13.416;2024-02-23T05:45:43;19.10;43.60
84141;DHT22;74257;52.540;13.416;2024-02-23T05:48:11;19.10;43.60
84141;DHT22;74257;52.540;13.416;2024-02-23T05:50:37;19.10;43.60
84141;DHT22;74257;52.540;13.416;2024-02-23T05:53:03;19.10;43.60
84141;DHT22;74257;52.540;13.416;2024-02-23T05:55:30;19.10;43.60
84141;DHT22;74257;52.540;13.416;2024-02-23T05:57:56;19.10;43.60
84141;DHT22;74257;52.540;13.416;2024-02-23T06:00:22;19.10;43.60
84141;DHT22;74257;52.540;13.416;2024-02-23T06:02:48;19.00;43.60
84141;DHT22;74257;52.540;13.416;2024-02-23T06:05:14;19.00;43.60
84141;DHT22;74257;52.540;13.416;2024-02-23T06:07:41;19.00;43.60
84141;DHT22;74257;52.540;13.416;2024-02-23T06:10:07;19.10;43.60
84141;DHT22;74257;52.540;13.416;2024-02-23T06:12:33;19.00;43.60
84141;DHT22;74257;52.540;13.416;2024-02-23T06:14:58;19.00;43.60
84141;DHT22;74257;52.540;13.416;2024-02-23T06:17:24;19.00;43.60
84141;DHT22;74257;52.540;13.416;2024-02-23T06:19:50;19.00;43.50
84141;DHT22;74257;52.540;13.416;2024-02-23T06:22:18;19.00;43.50
84141;DHT22;74257;52.540;13.416;2024-02-23T06:24:49;19.00;43.60
84141;DHT22;74257;52.540;13.416;2024-02-23T06:27:15;19.00;43.60
84141;DHT22;74257;52.540;13.416;2024-02-23T06:29:41;19.00;43.50
84141;DHT22;74257;52.540;13.416;2024-02-23T06:32:07;19.00;43.50
84141;DHT22;74257;52.540;13.416;2024-02-23T06:34:33;19.00;43.60
84141;DHT22;74257;52.540;13.416;2024-02-23T06:36:59;19.00;43.50
84141;DHT22;74257;52.540;13.416;2024-02-23T06:39:25;19.00;43.50
84141;DHT22;74257;52.540;13.416;2024-02-23T06:41:51;19.00;43.50
84141;DHT22;74257;52.540;13.416;2024-02-23T06:44:17;19.00;43.60
84141;DHT22;74257;52.540;13.416;2024-02-23T06:46:43;19.00;43.50
84141;DHT22;74257;52.540;13.416;2024-02-23T06:49:09;19.00;43.60
84141;DHT22;74257;52.540;13.416;2024-02-23T06:51:35;19.00;43.60
84141;DHT22;74257;52.540;13.416;2024-02-23T06:54:01;19.00;43.60
84141;DHT22;74257;52.540;13.416;2024-02-23T06:56:29;19.00;43.70
84141;DHT22;74257;52.540;13.416;2024-02-23T06:58:55;19.00;43.80
84141;DHT22;74257;52.540;13.416;2024-02-23T07:01:21;19.00;43.70
84141;DHT22;74257;52.540;13.416;2024-02-23T07:03:46;19.00;43.70
84141;DHT22;74257;52.540;13.416;2024-02-23T07:06:14;19.00;43.70
84141;DHT22;74257;52.540;13.416;2024-02-23T07:08:44;19.00;43.60
84141;DHT22;74257;52.540;13.416;2024-02-23T07:11:10;19.00;43.70
84141;DHT22;74257;52.540;13.416;2024-02-23T07:13:36;19.00;43.70
84141;DHT22;74257;52.540;13.416;2024-02-23T07:16:02;19.00;43.70
84141;DHT22;74257;52.540;13.416;2024-02-23T07:18:28;19.00;43.60
84141;DHT22;74257;52.540;13.416;2024-02-23T07:20:54;19.00;43.70
84141;DHT22;74257;52.540;13.416;2024-02-23T07:23:20;19.00;43.70
84141;DHT22;74257;52.540;13.416;2024-02-23T07:25:46;19.00;43.70
84141;DHT22;74257;52.540;13.416;2024-02-23T07:28:13;19.00;43.70
84141;DHT22;74257;52.540;13.416;2024-02-23T07:30:40;19.00;43.70
84141;DHT22;74257;52.540;13.416;2024-02-23T07:33:05;19.00;43.60
84141;DHT22;74257;52.540;13.416;2024-02-23T07:35:31;19.00;43.60
84141;DHT22;74257;52.540;13.416;2024-02-23T07:37:57;19.00;43.60
84141;DHT22;74257;52.540;13.416;2024-02-23T07:40:23;19.00;43.60
84141;DHT22;74257;52.540;13.416;2024-02-23T07:42:48;19.00;43.60
84141;DHT22;74257;52.540;13.416;2024-02-23T07:45:14;19.00;43.60
84141;DHT22;74257;52.540;13.416;2024-02-23T07:47:40;19.00;43.60
84141;DHT22;74257;52.540;13.416;2024-02-23T07:50:06;19.00;43.70
84141;DHT22;74257;52.540;13.416;2024-02-23T07:52:32;19.00;43.60
84141;DHT22;74257;52.540;13.416;2024-02-23T07:54:59;19.00;43.70
84141;DHT22;74257;52.540;13.416;2024-02-23T07:57:28;19.00;43.60
84141;DHT22;74257;52.540;13.416;2024-02-23T07:59:53;19.00;43.60
84141;DHT22;74257;52.540;13.416;2024-02-23T08:02:19;19.00;43.70
84141;DHT22;74257;52.540;13.416;2024-02-23T08:04:45;19.00;43.70
84141;DHT22;74257;52.540;13.416;2024-02-23T08:07:13;19.10;43.70
84141;DHT22;74257;52.540;13.416;2024-02-23T08:09:38;19.10;43.80
84141;DHT22;74257;52.540;13.416;2024-02-23T08:12:05;19.10;43.80
84141;DHT22;74257;52.540;13.416;2024-02-23T08:14:30;19.10;43.90
84141;DHT22;74257;52.540;13.416;2024-02-23T08:16:56;19.10;43.90
84141;DHT22;74257;52.540;13.416;2024-02-23T08:19:22;19.10;44.00
84141;DHT22;74257;52.540;13.416;2024-02-23T08:21:48;19.10;44.00
84141;DHT22;74257;52.540;13.416;2024-02-23T08:24:13;19.10;44.00
84141;DHT22;74257;52.540;13.416;2024-02-23T08:26:39;19.10;43.90
84141;DHT22;74257;52.540;13.416;2024-02-23T08:29:06;19.10;44.00
84141;DHT22;74257;52.540;13.416;2024-02-23T08:31:32;19.10;43.90
84141;DHT22;74257;52.540;13.416;2024-02-23T08:33:58;19.10;43.80
84141;DHT22;74257;52.540;13.416;2024-02-23T08:36:23;19.20;43.90
84141;DHT22;74257;52.540;13.416;2024-02-23T08:38:49;19.20;43.80
84141;DHT22;74257;52.540;13.416;2024-02-23T08:41:15;19.20;43.80
84141;DHT22;74257;52.540;13.416;2024-02-23T08:43:41;19.20;43.80
84141;DHT22;74257;52.540;13.416;2024-02-23T08:46:07;19.20;43.80
84141;DHT22;74257;52.540;13.416;2024-02-23T08:48:33;19.20;43.80
84141;DHT22;74257;52.540;13.416;2024-02-23T08:50:59;19.20;43.80
84141;DHT22;74257;52.540;13.416;2024-02-23T08:53:25;19.20;43.70
84141;DHT22;74257;52.540;13.416;2024-02-23T08:55:51;19.20;43.70
84141;DHT22;74257;52.540;13.416;2024-02-23T08:58:17;19.20;43.70
84141;DHT22;74257;52.540;13.416;2024-02-23T09:00:43;19.20;43.80
84141;DHT22;74257;52.540;13.416;2024-02-23T09:03:09;19.20;43.70
84141;DHT22;74257;52.540;13.416;2024-02-23T09:05:34;19.20;43.70
84141;DHT22;74257;52.540;13.416;2024-02-23T09:08:00;19.20;43.70
84141;DHT22;74257;52.540;13.416;2024-02-23T09:10:26;19.20;43.80
84141;DHT22;74257;52.540;13.416;2024-02-23T09:12:52;19.20;43.90
84141;DHT22;74257;52.540;13.416;2024-02-23T09:15:17;19.30;43.70
84141;DHT22;74257;52.540;13.416;2024-02-23T09:17:43;19.30;43.70
84141;DHT22;74257;52.540;13.416;2024-02-23T09:20:09;19.30;43.70
84141;DHT22;74257;52.540;13.416;2024-02-23T09:22:36;19.30;43.80
84141;DHT22;74257;52.540;13.416;2024-02-23T09:25:03;19.30;43.70
84141;DHT22;74257;52.540;13.416;2024-02-23T09:27:30;19.30;43.90
84141;DHT22;74257;52.540;13.416;2024-02-23T09:29:56;19.30;43.80
84141;DHT22;74257;52.540;13.416;2024-02-23T09:32:23;19.40;43.70
84141;DHT22;74257;52.540;13.416;2024-02-23T09:34:49;19.40;43.70
84141;DHT22;74257;52.540;13.416;2024-02-23T09:37:14;19.40;43.90
84141;DHT22;74257;52.540;13.416;2024-02-23T09:39:40;19.40;43.80
84141;DHT22;74257;52.540;13.416;2024-02-23T09:42:10;19.40;43.60
84141;DHT22;74257;52.540;13.416;2024-02-23T09:44:36;19.40;43.70
84141;DHT22;74257;52.540;13.416;2024-02-23T09:47:03;19.40;43.70
84141;DHT22;74257;52.540;13.416;2024-02-23T09:49:38;19.40;43.70
84141;DHT22;74257;52.540;13.416;2024-02-23T09:52:07;19.40;43.60
84141;DHT22;74257;52.540;13.416;2024-02-23T09:54:37;19.40;43.60
84141;DHT22;74257;52.540;13.416;2024-02-23T09:57:06;19.40;43.60
84141;DHT22;74257;52.540;13.416;2024-02-23T09:59:34;19.50;43.70
84141;DHT22;74257;52.540;13.416;2024-02-23T10:01:59;19.50;43.70
84141;DHT22;74257;52.540;13.416;2024-02-23T10:04:27;19.50;43.60
84141;DHT22;74257;52.540;13.416;2024-02-23T10:06:55;19.50;43.60
84141;DHT22;74257;52.540;13.416;2024-02-23T10:09:21;19.50;43.50
84141;DHT22;74257;52.540;13.416;2024-02-23T10:11:54;19.50;43.70
84141;DHT22;74257;52.540;13.416;2024-02-23T10:14:21;19.50;43.60
84141;DHT22;74257;52.540;13.416;2024-02-23T10:16:46;19.50;43.50
84141;DHT22;74257;52.540;13.416;2024-02-23T10:19:12;19.50;43.50
84141;DHT22;74257;52.540;13.416;2024-02-23T10:21:38;19.50;43.40
84141;DHT22;74257;52.540;13.416;2024-02-23T10:24:05;19.50;43.50
84141;DHT22;74257;52.540;13.416;2024-02-23T10:26:31;19.50;43.50
84141;DHT22;74257;52.540;13.416;2024-02-23T10:28:57;19.50;43.40
84141;DHT22;74257;52.540;13.416;2024-02-23T10:31:24;19.50;43.40
84141;DHT22;74257;52.540;13.416;2024-02-23T10:33:50;19.60;43.40
84141;DHT22;74257;52.540;13.416;2024-02-23T10:36:18;19.60;43.40
84141;DHT22;74257;52.540;13.416;2024-02-23T10:38:48;19.60;43.50
84141;DHT22;74257;52.540;13.416;2024-02-23T10:41:17;19.60;43.50
84141;DHT22;74257;52.540;13.416;2024-02-23T10:43:47;19.60;43.50
84141;DHT22;74257;52.540;13.416;2024-02-23T10:46:14;19.60;43.40
84141;DHT22;74257;52.540;13.416;2024-02-23T10:48:44;19.70;43.40
84141;DHT22;74257;52.540;13.416;2024-02-23T10:51:12;19.70;43.40
84141;DHT22;74257;52.540;13.416;2024-02-23T10:53:43;19.70;43.40
84141;DHT22;74257;52.540;13.416;2024-02-23T10:56:10;19.70;43.40
84141;DHT22;74257;52.540;13.416;2024-02-23T10:58:36;19.70;43.50
84141;DHT22;74257;52.540;13.416;2024-02-23T11:01:04;19.70;43.40
84141;DHT22;74257;52.540;13.416;2024-02-23T11:03:33;19.70;43.40
84141;DHT22;74257;52.540;13.416;2024-02-23T11:06:00;19.70;43.30
84141;DHT22;74257;52.540;13.416;2024-02-23T11:08:29;19.70;43.40
84141;DHT22;74257;52.540;13.416;2024-02-23T11:10:55;19.70;43.40
84141;DHT22;74257;52.540;13.416;2024-02-23T11:13:31;19.70;43.40
84141;DHT22;74257;52.540;13.416;2024-02-23T11:16:03;19.70;43.20
84141;DHT22;74257;52.540;13.416;2024-02-23T11:18:30;19.70;43.30
84141;DHT22;74257;52.540;13.416;2024-02-23T11:21:04;19.70;43.30
84141;DHT22;74257;52.540;13.416;2024-02-23T11:23:44;19.70;43.30
84141;DHT22;74257;52.540;13.416;2024-02-23T11:26:13;19.70;43.30
84141;DHT22;74257;52.540;13.416;2024-02-23T11:28:49;19.70;43.30
84141;DHT22;74257;52.540;13.416;2024-02-23T11:31:22;19.80;43.30
84141;DHT22;74257;52.540;13.416;2024-02-23T11:33:56;19.70;43.30
84141;DHT22;74257;52.540;13.416;2024-02-23T11:36:35;19.80;43.30
84141;DHT22;74257;52.540;13.416;2024-02-23T11:39:02;19.80;43.20
84141;DHT22;74257;52.540;13.416;2024-02-23T11:41:29;19.80;43.30
84141;DHT22;74257;52.540;13.416;2024-02-23T11:43:56;19.80;43.30
84141;DHT22;74257;52.540;13.416;2024-02-23T11:46:22;19.80;43.30
84141;DHT22;74257;52.540;13.416;2024-02-23T11:48:49;19.80;43.20
84141;DHT22;74257;52.540;13.416;2024-02-23T11:51:22;19.80;43.20
84141;DHT22;74257;52.540;13.416;2024-02-23T11:53:49;19.80;43.20
84141;DHT22;74257;52.540;13.416;2024-02-23T11:56:15;19.90;43.20
84141;DHT22;74257;52.540;13.416;2024-02-23T11:58:41;19.90;43.20
84141;DHT22;74257;52.540;13.416;2024-02-23T12:01:07;19.90;43.20
84141;DHT22;74257;52.540;13.416;2024-02-23T12:03:33;19.90;43.20
84141;DHT22;74257;52.540;13.416;2024-02-23T12:06:02;19.90;43.20
84141;DHT22;74257;52.540;13.416;2024-02-23T12:08:30;19.90;43.20
84141;DHT22;74257;52.540;13.416;2024-02-23T12:11:04;19.90;43.20
84141;DHT22;74257;52.540;13.416;2024-02-23T12:13:30;19.90;43.20
84141;DHT22;74257;52.540;13.416;2024-02-23T12:15:57;19.90;43.20
84141;DHT22;74257;52.540;13.416;2024-02-23T12:18:23;19.90;43.10
84141;DHT22;74257;52.540;13.416;2024-02-23T12:20:52;19.90;43.20
84141;DHT22;74257;52.540;13.416;2024-02-23T12:23:18;19.90;43.20
84141;DHT22;74257;52.540;13.416;2024-02-23T12:25:54;19.90;43.20
84141;DHT22;74257;52.540;13.416;2024-02-23T12:28:20;20.00;43.10
84141;DHT22;74257;52.540;13.416;2024-02-23T12:30:46;20.00;43.10
84141;DHT22;74257;52.540;13.416;2024-02-23T12:33:15;20.00;43.10
84141;DHT22;74257;52.540;13.416;2024-02-23T12:35:41;20.00;43.10
84141;DHT22;74257;52.540;13.416;2024-02-23T12:38:07;20.00;43.00
84141;DHT22;74257;52.540;13.416;2024-02-23T12:40:32;20.00;43.10
84141;DHT22;74257;52.540;13.416;2024-02-23T12:42:58;20.00;43.10
84141;DHT22;74257;52.540;13.416;2024-02-23T12:45:24;20.00;43.10
84141;DHT22;74257;52.540;13.416;2024-02-23T12:47:50;20.00;43.10
84141;DHT22;74257;52.540;13.416;2024-02-23T12:50:16;20.00;43.10
84141;DHT22;74257;52.540;13.416;2024-02-23T12:52:42;20.00;43.00
84141;DHT22;74257;52.540;13.416;2024-02-23T12:55:08;20.00;43.10
84141;DHT22;74257;52.540;13.416;2024-02-23T12:57:34;20.00;43.00
84141;DHT22;74257;52.540;13.416;2024-02-23T13:00:00;20.00;43.00
84141;DHT22;74257;52.540;13.416;2024-02-23T13:02:26;20.00;43.00
84141;DHT22;74257;52.540;13.416;2024-02-23T13:04:51;20.00;43.00
84141;DHT22;74257;52.540;13.416;2024-02-23T13:07:17;20.00;43.00
84141;DHT22;74257;52.540;13.416;2024-02-23T13:09:44;20.00;43.00
84141;DHT22;74257;52.540;13.416;2024-02-23T13:12:10;20.00;43.00
84141;DHT22;74257;52.540;13.416;2024-02-23T13:14:36;20.00;43.00
84141;DHT22;74257;52.540;13.416;2024-02-23T13:17:02;20.00;43.00
84141;DHT22;74257;52.540;13.416;2024-02-23T13:19:29;20.00;43.00
84141;DHT22;74257;52.540;13.416;2024-02-23T13:21:55;20.00;43.00
84141;DHT22;74257;52.540;13.416;2024-02-23T13:24:20;20.00;43.00
84141;DHT22;74257;52.540;13.416;2024-02-23T13:26:46;20.00;43.00
84141;DHT22;74257;52.540;13.416;2024-02-23T13:29:12;20.00;42.90
84141;DHT22;74257;52.540;13.416;2024-02-23T13:31:38;20.10;42.90
84141;DHT22;74257;52.540;13.416;2024-02-23T13:34:05;20.00;42.90
84141;DHT22;74257;52.540;13.416;2024-02-23T13:36:31;20.00;42.90
84141;DHT22;74257;52.540;13.416;2024-02-23T13:38:56;20.00;42.90
84141;DHT22;74257;52.540;13.416;2024-02-23T13:41:22;20.00;42.90
84141;DHT22;74257;52.540;13.416;2024-02-23T13:43:48;20.10;42.90
84141;DHT22;74257;52.540;13.416;2024-02-23T13:46:14;20.10;42.90
84141;DHT22;74257;52.540;13.416;2024-02-23T13:48:39;20.10;42.90
84141;DHT22;74257;52.540;13.416;2024-02-23T13:51:05;20.10;42.90
84141;DHT22;74257;52.540;13.416;2024-02-23T13:53:31;20.10;42.90
84141;DHT22;74257;52.540;13.416;2024-02-23T13:55:58;20.10;42.90
84141;DHT22;74257;52.540;13.416;2024-02-23T13:58:26;20.10;42.80
84141;DHT22;74257;52.540;13.416;2024-02-23T14:00:53;20.10;42.80
84141;DHT22;74257;52.540;13.416;2024-02-23T14:03:19;20.10;42.80
84141;DHT22;74257;52.540;13.416;2024-02-23T14:05:45;20.10;42.80
84141;DHT22;74257;52.540;13.416;2024-02-23T14:08:12;20.10;42.80
84141;DHT22;74257;52.540;13.416;2024-02-23T14:10:38;20.10;42.80
84141;DHT22;74257;52.540;13.416;2024-02-23T14:13:04;20.10;42.80
84141;DHT22;74257;52.540;13.416;2024-02-23T14:15:29;20.10;42.80
84141;DHT22;74257;52.540;13.416;2024-02-23T14:17:55;20.10;42.80
84141;DHT22;74257;52.540;13.416;2024-02-23T14:20:21;20.10;42.80
84141;DHT22;74257;52.540;13.416;2024-02-23T14:22:47;20.10;42.80
84141;DHT22;74257;52.540;13.416;2024-02-23T14:25:13;20.10;42.80
84141;DHT22;74257;52.540;13.416;2024-02-23T14:27:38;20.10;42.70
84141;DHT22;74257;52.540;13.416;2024-02-23T14:30:05;20.10;42.70
84141;DHT22;74257;52.540;13.416;2024-02-23T14:32:31;20.10;42.80
84141;DHT22;74257;52.540;13.416;2024-02-23T14:34:57;20.10;42.80
84141;DHT22;74257;52.540;13.416;2024-02-23T14:37:23;20.10;42.70
84141;DHT22;74257;52.540;13.416;2024-02-23T14:39:49;20.10;42.70
84141;DHT22;74257;52.540;13.416;2024-02-23T14:42:14;20.10;42.70
84141;DHT22;74257;52.540;13.416;2024-02-23T14:44:40;20.10;42.80
84141;DHT22;74257;52.540;13.416;2024-02-23T14:47:06;20.10;42.70
84141;DHT22;74257;52.540;13.416;2024-02-23T14:49:32;20.10;42.70
84141;DHT22;74257;52.540;13.416;2024-02-23T14:51:58;20.10;42.70
84141;DHT22;74257;52.540;13.416;2024-02-23T14:54:24;20.10;42.70
84141;DHT22;74257;52.540;13.416;2024-02-23T14:56:49;20.10;42.60
84141;DHT22;74257;52.540;13.416;2024-02-23T14:59:15;20.10;42.60
84141;DHT22;74257;52.540;13.416;2024-02-23T15:01:42;20.10;42.60
84141;DHT22;74257;52.540;13.416;2024-02-23T15:04:08;20.10;42.50
84141;DHT22;74257;52.540;13.416;2024-02-23T15:06:34;20.10;42.60
84141;DHT22;74257;52.540;13.416;2024-02-23T15:09:03;20.10;42.50
84141;DHT22;74257;52.540;13.416;2024-02-23T15:11:29;20.10;42.50